Terminal Aerodrome Forecast
Issued by NWS Glasgow, MT

Home | Current Version | Previous Version | Text Only | Print | Product List | Glossary On
Versions: 1 2 3 4 5 6 7 8 9 10 11 12
942
FTUS45 KGGW 271142
TAFGGW
TAF
KGGW 271142Z 2712/2812 09015KT P6SM BKN080
     FM280200 09008KT P6SM BKN080=

USA.gov is the U.S. government's official web portal to all federal, state and local government web resources and services.